Time;durP1;ratioP1;P1;durP2;ratioP2;P2;SDS_P1;SDS_P2;PMS_P1;PMS_P2;Temp;Humidity;BMP_temperature;BMP_pressure;BME280_temperature;BME280_humidity;BME280_pressure;Samples;Min_cycle;Max_cycle;Signal;HPM_P1;HPM_P2
2022/06/18 00:00:58;;;;;;;13.35;9.13;;;18.40;99.90;;;;;;5092837;28;20543;-64
2022/06/18 00:03:25;;;;;;;15.23;9.38;;;18.70;99.90;;;;;;5093084;28;20122;-63
2022/06/18 00:05:54;;;;;;;10.93;9.18;;;18.10;99.90;;;;;;5092970;28;20087;-64
2022/06/18 00:08:30;;;;;;;13.02;9.77;;;18.30;99.90;;;;;;5092981;28;20044;-64
2022/06/18 00:13:46;;;;;;;14.73;9.52;;;18.30;99.90;;;;;;5092638;28;20097;-63
2022/06/18 00:16:15;;;;;;;13.55;9.90;;;18.10;99.90;;;;;;5092531;28;20039;-64
2022/06/18 00:18:41;;;;;;;11.68;9.98;;;18.20;99.90;;;;;;5125931;27;20105;-64
2022/06/18 00:21:08;;;;;;;12.77;9.57;;;18.30;99.90;;;;;;5092579;28;20048;-65
2022/06/18 00:23:37;;;;;;;14.38;10.25;;;18.10;99.90;;;;;;5092761;28;20116;-65
2022/06/18 00:26:03;;;;;;;20.88;10.00;;;17.80;99.90;;;;;;5125044;27;20055;-65
2022/06/18 00:28:31;;;;;;;11.70;10.20;;;17.80;99.90;;;;;;5092473;28;20097;-65
2022/06/18 00:30:57;;;;;;;11.68;10.48;;;17.70;99.90;;;;;;5092557;28;20048;-65
2022/06/18 00:33:23;;;;;;;13.15;10.73;;;17.80;99.90;;;;;;5092360;28;20056;-65
2022/06/18 00:35:52;;;;;;;13.80;10.20;;;17.90;99.90;;;;;;5092511;28;20048;-64
2022/06/18 00:38:28;;;;;;;15.98;11.05;;;17.70;99.90;;;;;;5090895;28;20051;-64
2022/06/18 00:40:55;;;;;;;11.88;10.32;;;17.50;99.90;;;;;;5092306;28;20040;-64
2022/06/18 00:43:30;;;;;;;14.38;10.60;;;17.70;99.90;;;;;;5092390;28;20070;-65
2022/06/18 00:46:05;;;;;;;13.90;10.18;;;17.70;99.90;;;;;;5092333;28;20052;-65
2022/06/18 00:48:43;;;;;;;17.48;11.48;;;17.00;99.90;;;;;;5092228;28;20066;-65
2022/06/18 00:51:20;;;;;;;14.70;10.90;;;17.70;99.90;;;;;;5092258;28;20043;-65
2022/06/18 00:53:51;;;;;;;15.38;11.20;;;17.80;99.90;;;;;;5092492;28;20047;-65
2022/06/18 00:56:28;;;;;;;14.95;11.50;;;17.50;99.90;;;;;;5092315;28;20127;-65
2022/06/18 00:59:13;;;;;;;14.40;11.52;;;17.50;99.90;;;;;;5092179;28;20105;-64
2022/06/18 01:01:45;;;;;;;12.52;11.32;;;17.60;99.90;;;;;;5092109;28;20048;-65
2022/06/18 01:04:30;;;;;;;15.18;12.52;;;17.70;99.90;;;;;;5092253;28;20144;-64
2022/06/18 01:07:06;;;;;;;18.17;11.88;;;17.50;99.90;;;;;;5092199;28;20048;-64
2022/06/18 01:09:35;;;;;;;13.63;11.35;;;17.60;99.90;;;;;;5092003;28;20043;-64
2022/06/18 01:12:01;;;;;;;13.63;11.50;;;17.80;99.90;;;;;;5092226;28;20117;-64
2022/06/18 01:14:27;;;;;;;13.85;12.40;;;17.80;99.90;;;;;;5092292;28;20052;-64
2022/06/18 01:16:56;;;;;;;14.50;11.85;;;17.70;99.90;;;;;;5091819;28;20040;-64
2022/06/18 01:19:36;;;;;;;13.75;12.23;;;17.70;99.90;;;;;;5091753;28;20507;-64
2022/06/18 01:22:46;;;;;;;14.13;12.63;;;17.50;99.90;;;;;;5091952;28;20052;-64
2022/06/18 01:25:12;;;;;;;13.73;11.95;;;17.80;99.90;;;;;;5089547;28;20056;-65
2022/06/18 01:27:39;;;;;;;17.40;12.77;;;17.80;99.90;;;;;;5090650;28;20047;-64
2022/06/18 01:30:07;;;;;;;14.68;11.77;;;17.60;99.90;;;;;;5094522;28;20568;-64
2022/06/18 01:32:33;;;;;;;18.25;11.82;;;17.50;99.90;;;;;;5095723;28;20052;-64
2022/06/18 01:35:00;;;;;;;17.95;11.82;;;17.50;99.90;;;;;;5096059;28;20143;-64
2022/06/18 01:37:26;;;;;;;16.58;11.70;;;17.40;99.90;;;;;;5095939;28;20054;-64
2022/06/18 01:39:52;;;;;;;14.85;11.60;;;17.80;99.90;;;;;;5095864;28;20051;-64
2022/06/18 01:42:26;;;;;;;24.45;12.27;;;17.80;99.90;;;;;;5095871;28;20054;-64
2022/06/18 01:45:03;;;;;;;19.73;12.32;;;17.60;99.90;;;;;;5095875;28;20052;-64
2022/06/18 01:47:38;;;;;;;19.25;12.63;;;17.50;99.90;;;;;;5095790;28;20058;-64
2022/06/18 01:50:19;;;;;;;21.60;12.85;;;17.80;99.90;;;;;;5095635;28;20044;-64
2022/06/18 01:52:49;;;;;;;22.48;13.32;;;17.50;99.90;;;;;;5095575;28;20040;-64
2022/06/18 01:55:19;;;;;;;16.83;13.32;;;17.40;99.90;;;;;;5095589;28;20052;-65
2022/06/18 01:57:50;;;;;;;22.95;14.13;;;17.30;99.90;;;;;;5095618;28;20048;-64
2022/06/18 02:00:20;;;;;;;20.95;15.15;;;17.40;99.90;;;;;;5095509;28;20452;-64
2022/06/18 02:02:46;;;;;;;24.52;15.65;;;17.30;99.90;;;;;;5095435;28;20055;-64
2022/06/18 02:05:15;;;;;;;18.73;13.35;;;17.30;99.90;;;;;;5128150;27;20121;-64
2022/06/18 02:07:43;;;;;;;24.58;15.98;;;17.70;99.90;;;;;;5095358;28;20349;-63
2022/06/18 02:10:25;;;;;;;24.00;17.73;;;17.40;99.90;;;;;;5095307;28;20046;-63
2022/06/18 02:12:52;;;;;;;29.50;18.02;;;17.30;99.90;;;;;;5095247;28;20047;-64
2022/06/18 02:15:39;;;;;;;28.27;17.85;;;17.40;99.90;;;;;;5095176;28;20048;-64
2022/06/18 02:18:07;;;;;;;;;;;17.10;99.90;;;;;;5094144;28;20875;-64
2022/06/18 02:20:39;;;;;;;31.67;17.98;;;17.20;99.90;;;;;;5094113;28;19990;-64
2022/06/18 02:23:05;;;;;;;23.85;17.00;;;16.90;99.90;;;;;;5095108;28;20044;-64
2022/06/18 02:25:31;;;;;;;25.98;18.45;;;17.10;99.90;;;;;;5094889;28;20055;-64
2022/06/18 02:28:03;;;;;;;35.78;18.15;;;16.90;99.90;;;;;;5094980;28;20040;-64
2022/06/18 02:30:31;;;;;;;30.15;19.23;;;17.00;99.90;;;;;;5094987;28;20086;-64
2022/06/18 02:33:23;;;;;;;27.77;19.65;;;17.10;99.90;;;;;;5093383;28;20139;-64
2022/06/18 02:35:49;;;;;;;29.73;18.40;;;17.00;99.90;;;;;;5094871;28;20048;-64
2022/06/18 02:38:19;;;;;;;;;;;16.80;99.90;;;;;;5094213;28;20387;-64
2022/06/18 02:40:45;;;;;;;31.77;18.60;;;16.80;99.90;;;;;;5094551;28;19927;-64
2022/06/18 02:43:12;;;;;;;37.65;17.90;;;16.70;99.90;;;;;;5094625;28;20044;-64
2022/06/18 02:45:39;;;;;;;29.80;18.42;;;17.00;99.90;;;;;;5094678;28;20373;-64
2022/06/18 02:48:08;;;;;;;34.65;19.85;;;16.70;99.90;;;;;;5094496;28;20040;-64
2022/06/18 02:50:36;;;;;;;32.85;18.13;;;16.70;99.90;;;;;;5094574;28;20044;-64
2022/06/18 02:53:03;;;;;;;31.40;17.88;;;16.80;99.90;;;;;;5094413;28;20515;-64
2022/06/18 02:55:33;;;;;;;34.72;18.33;;;16.40;99.90;;;;;;5094421;28;20090;-64
2022/06/18 02:58:05;;;;;;;27.02;18.85;;;16.60;99.90;;;;;;5094397;28;20120;-64
2022/06/18 03:00:36;;;;;;;30.13;17.05;;;16.30;99.90;;;;;;5094465;28;20093;-64
2022/06/18 03:03:03;;;;;;;32.17;18.65;;;16.30;99.90;;;;;;5094250;28;20040;-64
2022/06/18 03:05:29;;;;;;;33.83;19.23;;;16.60;99.90;;;;;;5094338;28;20131;-64
2022/06/18 03:07:55;;;;;;;29.65;19.15;;;16.40;99.90;;;;;;5094206;28;20048;-64
2022/06/18 03:13:05;;;;;;;35.05;20.42;;;16.20;99.90;;;;;;5094172;28;19981;-64
2022/06/18 03:15:31;;;;;;;;;;;16.40;99.90;;;;;;5094408;28;20082;-64
2022/06/18 03:17:58;;;;;;;32.35;19.77;;;16.40;99.90;;;;;;5093951;28;20382;-64
2022/06/18 03:20:37;;;;;;;28.73;19.67;;;16.30;99.90;;;;;;5093881;28;20048;-64
2022/06/18 03:23:05;;;;;;;33.60;21.80;;;16.20;99.90;;;;;;5093907;28;20051;-64
2022/06/18 03:25:31;;;;;;;33.45;20.77;;;16.10;99.90;;;;;;5093873;28;20048;-64
2022/06/18 03:27:56;;;;;;;47.20;22.35;;;16.30;99.90;;;;;;5093701;28;20040;-64
2022/06/18 03:30:22;;;;;;;;;;;16.40;99.90;;;;;;5094157;28;20051;-64
2022/06/18 03:32:48;;;;;;;29.10;20.55;;;16.10;99.90;;;;;;5092331;28;20391;-64
2022/06/18 03:35:13;;;;;;;;;;;16.30;99.90;;;;;;5094037;28;20056;-64
2022/06/18 03:37:39;;;;;;;34.28;19.45;;;16.40;99.90;;;;;;5093653;28;19924;-64
2022/06/18 03:40:05;;;;;;;;;;;16.30;99.90;;;;;;5093739;28;20055;-64
2022/06/18 03:42:30;;;;;;;32.13;19.88;;;16.40;99.90;;;;;;5093486;28;19931;-64
2022/06/18 03:44:56;;;;;;;32.33;18.35;;;16.20;99.90;;;;;;5093515;28;20047;-64
2022/06/18 03:47:23;;;;;;;;;;;16.40;99.90;;;;;;5093871;28;20549;-63
2022/06/18 03:49:48;;;;;;;26.93;19.37;;;16.30;99.90;;;;;;5093391;28;19924;-64
2022/06/18 03:52:14;;;;;;;;;;;16.40;99.90;;;;;;5093082;28;20282;-63
2022/06/18 03:54:39;;;;;;;29.27;19.33;;;16.20;99.90;;;;;;5093315;28;19928;-63
2022/06/18 03:57:05;;;;;;;;;;;16.80;99.90;;;;;;5093717;28;20058;-64
2022/06/18 03:59:31;;;;;;;31.20;18.83;;;16.30;99.90;;;;;;5092069;28;19978;-64
2022/06/18 04:01:57;;;;;;;35.92;18.88;;;16.50;99.90;;;;;;5093161;28;20079;-64
2022/06/18 04:04:23;;;;;;;27.23;17.92;;;16.20;99.90;;;;;;5093110;28;20511;-63
2022/06/18 04:06:48;;;;;;;;;;;16.00;99.90;;;;;;5092409;28;20093;-64
2022/06/18 04:09:14;;;;;;;25.25;19.58;;;16.30;99.90;;;;;;5093004;28;19920;-63
2022/06/18 04:11:39;;;;;;;30.10;19.88;;;16.50;99.90;;;;;;5092904;28;20495;-63
2022/06/18 04:14:05;;;;;;;;;;;16.10;99.90;;;;;;5093239;28;20472;-64
2022/06/18 04:16:32;;;;;;;29.23;18.98;;;16.10;99.90;;;;;;5092892;28;19979;-64
2022/06/18 04:18:58;;;;;;;29.58;17.95;;;16.20;99.90;;;;;;5092522;28;20520;-64
2022/06/18 04:21:23;;;;;;;;;;;16.60;99.90;;;;;;5093214;28;20044;-64
2022/06/18 04:23:49;;;;;;;28.95;17.33;;;16.60;99.90;;;;;;5092963;28;19927;-65
2022/06/18 04:26:18;;;;;;;30.35;18.55;;;16.10;99.90;;;;;;5124732;27;20487;-64
2022/06/18 04:28:44;;;;;;;;;;;16.80;99.90;;;;;;5092694;28;20051;-63
2022/06/18 04:31:10;;;;;;;30.77;18.23;;;16.50;99.90;;;;;;5091414;28;20047;-64
2022/06/18 04:33:36;;;;;;;;;;;16.60;99.90;;;;;;5092266;28;20091;-64
2022/06/18 04:36:01;;;;;;;33.70;18.23;;;16.60;99.90;;;;;;5092780;28;20010;-63
2022/06/18 04:38:27;;;;;;;;;;;16.80;99.90;;;;;;5092893;28;20105;-63
2022/06/18 04:40:53;;;;;;;37.28;18.75;;;16.70;99.90;;;;;;5092417;28;19928;-63
2022/06/18 04:43:19;;;;;;;31.73;18.98;;;16.80;99.90;;;;;;5125500;27;20135;-63
2022/06/18 04:45:45;;;;;;;24.95;17.63;;;16.80;99.90;;;;;;5092446;28;20127;-66
2022/06/18 04:48:12;;;;;;;;;;;16.80;99.90;;;;;;5093083;28;20097;-65
2022/06/18 04:50:40;;;;;;;29.83;17.45;;;17.20;99.90;;;;;;5092271;28;20256;-65
2022/06/18 04:53:07;;;;;;;32.33;16.73;;;17.10;99.90;;;;;;5092245;28;20123;-66
2022/06/18 04:55:33;;;;;;;26.45;15.30;;;17.40;99.90;;;;;;5092269;28;20189;-66
2022/06/18 04:57:59;;;;;;;29.60;15.88;;;17.30;99.90;;;;;;5092255;28;20127;-66
2022/06/18 05:00:25;;;;;;;31.10;16.58;;;18.10;99.90;;;;;;5092155;28;20086;-66
2022/06/18 05:02:51;;;;;;;24.48;15.30;;;17.70;99.90;;;;;;5091312;28;20514;-65
2022/06/18 05:05:20;;;;;;;35.30;14.60;;;17.30;99.90;;;;;;5092188;28;20044;-66
2022/06/18 05:07:46;;;;;;;28.27;14.25;;;17.20;99.90;;;;;;5092077;28;20085;-66
2022/06/18 05:10:12;;;;;;;29.60;13.63;;;17.90;99.90;;;;;;5090851;28;20044;-66
2022/06/18 05:12:38;;;;;;;20.65;11.93;;;18.00;99.90;;;;;;5090666;28;20044;-66
2022/06/18 05:15:06;;;;;;;21.77;11.68;;;17.70;99.90;;;;;;5092074;28;20083;-66
2022/06/18 05:17:33;;;;;;;23.13;11.65;;;17.90;99.90;;;;;;5092072;28;20093;-66
2022/06/18 05:19:59;;;;;;;17.35;10.45;;;17.90;99.90;;;;;;5091924;28;20048;-66
2022/06/18 05:22:25;;;;;;;20.27;9.13;;;17.70;99.90;;;;;;5091771;28;20054;-67
2022/06/18 05:24:51;;;;;;;19.50;9.52;;;18.00;99.90;;;;;;5091852;28;20051;-66
2022/06/18 05:27:27;;;;;;;;;;;18.30;99.90;;;;;;5092399;28;20039;-66
2022/06/18 05:29:54;;;;;;;20.60;10.88;;;18.20;99.90;;;;;;5090613;28;20363;-67
2022/06/18 05:32:20;;;;;;;22.77;8.80;;;18.50;99.90;;;;;;5091490;28;20549;-67
2022/06/18 05:34:46;;;;;;;24.42;9.63;;;18.30;99.90;;;;;;5091625;28;20064;-68
2022/06/18 05:37:18;;;;;;;21.48;9.70;;;18.40;99.90;;;;;;5091845;28;20566;-68
2022/06/18 05:39:44;;;;;;;30.55;9.65;;;18.40;99.90;;;;;;5099901;28;20111;-67
2022/06/18 05:42:10;;;;;;;19.77;9.25;;;18.30;99.90;;;;;;5127595;28;20432;-68
2022/06/18 05:44:36;;;;;;;27.50;8.98;;;18.60;99.90;;;;;;5117044;28;20043;-68
2022/06/18 05:47:13;;;;;;;21.95;8.88;;;18.30;99.90;;;;;;5117416;27;20498;-67
2022/06/18 05:49:39;;;;;;;22.42;8.60;;;18.30;99.90;;;;;;5116287;27;20510;-67
2022/06/18 05:52:05;;;;;;;24.63;9.38;;;18.40;99.90;;;;;;5115962;28;20106;-66
2022/06/18 05:54:30;;;;;;;17.70;8.20;;;18.50;99.90;;;;;;5117120;28;20042;-66
2022/06/18 05:56:56;;;;;;;20.38;9.90;;;18.20;99.90;;;;;;5112627;27;20100;-67
2022/06/18 05:59:21;;;;;;;19.08;8.82;;;18.50;99.90;;;;;;5113653;28;20047;-67
2022/06/18 06:01:47;;;;;;;22.25;8.73;;;18.40;99.90;;;;;;5116846;28;20093;-67
2022/06/18 06:04:13;;;;;;;23.67;9.00;;;18.70;99.90;;;;;;5120883;27;20043;-67
2022/06/18 06:06:38;;;;;;;19.77;8.15;;;18.60;99.90;;;;;;5120121;28;20480;-67
2022/06/18 06:09:04;;;;;;;21.80;8.27;;;18.70;99.90;;;;;;5118527;27;20131;-67
2022/06/18 06:11:30;;;;;;;23.17;8.95;;;18.60;99.90;;;;;;5115265;28;20491;-67
2022/06/18 06:13:57;;;;;;;18.73;8.45;;;18.70;99.90;;;;;;5121241;27;20050;-67
2022/06/18 06:16:24;;;;;;;21.08;8.70;;;18.80;99.90;;;;;;5123393;27;20051;-67
2022/06/18 06:18:50;;;;;;;17.67;7.93;;;19.00;99.90;;;;;;5123190;27;20051;-71
2022/06/18 06:21:16;;;;;;;16.63;8.57;;;18.90;99.90;;;;;;5117137;27;20395;-68
2022/06/18 06:23:42;;;;;;;20.40;7.80;;;19.00;99.90;;;;;;5124196;27;20096;-68
2022/06/18 06:26:24;;;;;;;16.83;7.78;;;18.80;99.90;;;;;;5124203;27;20039;-67
2022/06/18 06:28:50;;;;;;;24.17;7.60;;;18.70;99.90;;;;;;5122413;27;20036;-67
2022/06/18 06:31:16;;;;;;;16.48;7.68;;;18.60;99.90;;;;;;5123450;27;20039;-67
2022/06/18 06:33:42;;;;;;;18.42;6.22;;;18.90;99.90;;;;;;5123567;27;20051;-65
2022/06/18 06:36:11;;;;;;;13.00;6.78;;;19.30;99.90;;;;;;5123692;27;20183;-65
2022/06/18 06:38:37;;;;;;;13.15;5.15;;;19.00;99.90;;;;;;5123029;27;20040;-65
2022/06/18 06:41:06;;;;;;;10.38;3.97;;;19.50;99.90;;;;;;5103959;28;20066;-66
2022/06/18 06:43:31;;;;;;;7.50;4.22;;;19.50;99.90;;;;;;5118602;27;20044;-64
2022/06/18 06:45:57;;;;;;;9.25;3.60;;;19.30;99.90;;;;;;5125859;27;20116;-65
2022/06/18 06:48:23;;;;;;;7.53;3.50;;;19.40;99.90;;;;;;5120555;27;20051;-65
2022/06/18 06:50:50;;;;;;;11.30;3.60;;;19.30;99.90;;;;;;5119365;27;20047;-66
2022/06/18 06:53:16;;;;;;;9.90;3.70;;;18.70;99.90;;;;;;5123473;27;20498;-66
2022/06/18 06:58:26;;;;;;;6.05;3.17;;;19.60;99.90;;;;;;5121955;27;20184;-66
2022/06/18 07:00:55;;;;;;;8.90;2.40;;;19.70;99.90;;;;;;5115592;27;20056;-67
2022/06/18 07:03:25;;;;;;;6.25;2.35;;;19.60;99.90;;;;;;5123179;27;20039;-65
2022/06/18 07:05:51;;;;;;;6.40;2.60;;;19.80;99.90;;;;;;5122387;27;20491;-66
2022/06/18 07:08:17;;;;;;;5.90;2.90;;;19.70;99.90;;;;;;5121728;27;20084;-65
2022/06/18 07:10:48;;;;;;;5.75;2.60;;;20.10;99.90;;;;;;5121161;27;20198;-65
2022/06/18 07:13:14;;;;;;;5.45;2.40;;;20.10;99.90;;;;;;5117126;27;20078;-66
2022/06/18 07:15:40;;;;;;;5.38;2.30;;;19.80;99.90;;;;;;5113045;28;20148;-66
2022/06/18 07:18:15;;;;;;;5.72;2.22;;;20.00;99.90;;;;;;5114155;28;20745;-67
2022/06/18 07:20:42;;;;;;;6.68;2.00;;;20.10;99.90;;;;;;5113033;28;20058;-65
2022/06/18 07:23:08;;;;;;;3.85;2.53;;;20.20;99.90;;;;;;5114299;28;20127;-66
2022/06/18 07:25:34;;;;;;;2.53;1.48;;;20.20;99.90;;;;;;5113680;28;20100;-66
2022/06/18 07:28:00;;;;;;;5.57;2.40;;;20.30;99.90;;;;;;5113831;28;20047;-67
2022/06/18 07:30:26;;;;;;;5.30;2.10;;;20.30;99.90;;;;;;5113941;28;20116;-66
2022/06/18 07:32:52;;;;;;;6.07;2.80;;;20.10;99.90;;;;;;5113533;28;20106;-66
2022/06/18 07:35:21;;;;;;;6.15;2.90;;;20.20;99.90;;;;;;5114146;28;20051;-66
2022/06/18 07:37:47;;;;;;;5.82;2.83;;;19.60;99.90;;;;;;5112710;28;20047;-66
2022/06/18 07:40:13;;;;;;;6.10;3.08;;;20.10;99.90;;;;;;5113933;28;20048;-67
2022/06/18 07:42:39;;;;;;;9.57;2.33;;;20.10;99.90;;;;;;5113905;28;20112;-65
2022/06/18 07:45:19;;;;;;;7.57;2.85;;;19.70;99.90;;;;;;5113590;28;20399;-66
2022/06/18 07:47:46;;;;;;;5.47;2.30;;;19.80;99.90;;;;;;5113909;28;20470;-67
2022/06/18 07:50:13;;;;;;;5.63;2.60;;;20.00;99.90;;;;;;5113795;28;20044;-66
2022/06/18 07:52:39;;;;;;;6.18;2.67;;;19.80;99.90;;;;;;5112635;28;20051;-67
2022/06/18 07:55:06;;;;;;;7.13;2.45;;;20.00;99.90;;;;;;5113666;28;20051;-68
2022/06/18 07:57:31;;;;;;;6.43;2.60;;;19.90;99.90;;;;;;5113351;28;20568;-68
2022/06/18 07:59:57;;;;;;;10.13;2.65;;;20.10;99.90;;;;;;5112326;28;20047;-66
2022/06/18 08:02:23;;;;;;;5.53;2.22;;;20.00;99.90;;;;;;5113484;28;20058;-67
2022/06/18 08:04:49;;;;;;;7.55;3.00;;;20.10;99.90;;;;;;5113399;28;20040;-66
2022/06/18 08:07:15;;;;;;;8.70;3.00;;;20.30;99.90;;;;;;5112222;28;20051;-65
2022/06/18 08:09:40;;;;;;;11.60;3.92;;;20.20;99.90;;;;;;5113327;28;20083;-66
2022/06/18 08:12:06;;;;;;;9.07;2.70;;;20.20;99.90;;;;;;5112336;28;20054;-66
2022/06/18 08:14:32;;;;;;;7.97;3.08;;;19.80;99.90;;;;;;5113287;28;20380;-66
2022/06/18 08:16:58;;;;;;;7.70;2.72;;;19.70;99.90;;;;;;5113294;28;20055;-66
2022/06/18 08:19:24;;;;;;;8.15;3.08;;;19.80;99.90;;;;;;5113340;28;20047;-66
2022/06/18 08:21:50;;;;;;;8.48;2.58;;;19.90;99.90;;;;;;5113263;28;20055;-66
2022/06/18 08:24:21;;;;;;;6.85;2.33;;;20.00;99.90;;;;;;5113151;28;20070;-67
2022/06/18 08:26:49;;;;;;;4.93;2.10;;;19.80;99.90;;;;;;5113168;28;20087;-66
2022/06/18 08:29:18;;;;;;;8.48;2.00;;;19.90;99.90;;;;;;5111766;28;20494;-66
2022/06/18 08:31:45;;;;;;;5.90;2.33;;;20.00;99.90;;;;;;5111986;28;20047;-66
2022/06/18 08:34:11;;;;;;;10.20;2.55;;;20.00;99.90;;;;;;5113045;28;20069;-66
2022/06/18 08:36:37;;;;;;;5.38;1.98;;;20.30;99.90;;;;;;5112952;28;20043;-66
2022/06/18 08:39:04;;;;;;;5.53;2.22;;;20.00;99.90;;;;;;5112707;28;20414;-66
2022/06/18 08:41:38;;;;;;;8.77;2.40;;;20.20;99.90;;;;;;5112918;28;20112;-68
2022/06/18 08:44:13;;;;;;;8.75;2.17;;;20.30;99.90;;;;;;5111671;28;20391;-68
2022/06/18 08:46:51;;;;;;;7.13;2.38;;;20.40;99.90;;;;;;5112968;28;20094;-68
2022/06/18 08:49:41;;;;;;;12.05;2.60;;;20.40;99.90;;;;;;5112088;28;20047;-68
2022/06/18 08:52:51;;;;;;;5.63;2.58;;;20.50;99.90;;;;;;5112874;28;20051;-69
2022/06/18 08:55:56;;;;;;;10.05;2.45;;;20.50;99.90;;;;;;5112786;28;20731;-68
2022/06/18 08:58:46;;;;;;;5.18;2.20;;;20.50;99.90;;;;;;5112683;28;20058;-67
2022/06/18 09:01:24;;;;;;;15.43;2.63;;;20.60;99.90;;;;;;5112534;28;20579;-68
2022/06/18 09:04:10;;;;;;;6.03;1.90;;;20.70;99.90;;;;;;5112578;28;20050;-67
2022/06/18 09:07:13;;;;;;;8.88;1.67;;;20.70;99.90;;;;;;5112507;28;20040;-68
2022/06/18 09:09:39;;;;;;;7.82;2.20;;;20.90;99.90;;;;;;5112502;28;20056;-68
2022/06/18 09:12:19;;;;;;;8.65;2.00;;;20.90;99.90;;;;;;5112387;28;20039;-68
2022/06/18 09:15:13;;;;;;;10.95;1.90;;;21.10;99.90;;;;;;5112262;28;20122;-68
2022/06/18 09:17:46;;;;;;;4.90;1.75;;;21.00;99.90;;;;;;5112520;28;20090;-69
2022/06/18 09:20:23;;;;;;;6.07;1.77;;;20.80;99.90;;;;;;5112409;28;20544;-69
2022/06/18 09:22:58;;;;;;;4.72;1.80;;;20.90;99.90;;;;;;5112345;28;20043;-68
2022/06/18 09:25:38;;;;;;;5.45;2.22;;;21.10;99.90;;;;;;5112411;28;20079;-67
2022/06/18 09:28:11;;;;;;;8.48;2.05;;;21.20;99.90;;;;;;5112609;28;20100;-68
2022/06/18 09:30:43;;;;;;;8.90;2.33;;;21.60;99.90;;;;;;5112328;28;20048;-72
2022/06/18 09:33:24;;;;;;;6.45;2.42;;;21.40;99.90;;;;;;5111875;28;20120;-68
2022/06/18 09:36:10;;;;;;;6.25;1.90;;;21.10;99.90;;;;;;5112527;28;20548;-69
2022/06/18 09:38:42;;;;;;;5.25;1.70;;;21.20;99.90;;;;;;5111034;28;20508;-67
2022/06/18 09:41:18;;;;;;;9.48;2.20;;;21.20;99.90;;;;;;5112464;28;20100;-68
2022/06/18 09:43:54;;;;;;;;;;;21.60;99.90;;;;;;5112643;28;20044;-68
2022/06/18 09:46:24;;;;;;;5.00;1.60;;;21.50;99.90;;;;;;5109623;28;19966;-68
2022/06/18 09:48:50;;;;;;;4.85;1.65;;;21.30;99.90;;;;;;5112188;28;20043;-67
2022/06/18 09:51:32;;;;;;;5.30;1.40;;;21.20;99.90;;;;;;5116063;28;20502;-67
2022/06/18 09:54:05;;;;;;;5.50;1.70;;;21.40;99.90;;;;;;5116050;28;20047;-68
2022/06/18 09:56:36;;;;;;;4.60;1.15;;;21.70;99.90;;;;;;5116249;28;20095;-68
2022/06/18 09:59:12;;;;;;;6.03;1.20;;;21.30;99.90;;;;;;5116043;28;20186;-71
2022/06/18 10:01:43;;;;;;;4.50;1.55;;;21.60;99.90;;;;;;5116046;28;20058;-68
2022/06/18 10:06:59;;;;;;;5.22;1.30;;;22.10;99.90;;;;;;5114843;28;20142;-68
2022/06/18 10:09:34;;;;;;;2.90;1.13;;;22.20;99.90;;;;;;5112529;27;20035;-66
2022/06/18 10:12:20;;;;;;;3.90;1.27;;;22.00;99.90;;;;;;5114934;28;20055;-69
2022/06/18 10:14:56;;;;;;;3.45;1.40;;;21.90;99.90;;;;;;5094961;28;20040;-65
2022/06/18 10:18:06;;;;;;;5.47;1.38;;;22.30;99.90;;;;;;5099152;27;20043;-71
2022/06/18 10:20:58;;;;;;;7.40;1.70;;;21.50;99.90;;;;;;5120255;27;20060;-67
2022/06/18 10:23:32;;;;;;;5.03;1.60;;;21.90;99.90;;;;;;5118932;27;20044;-68
2022/06/18 10:26:15;;;;;;;8.07;2.00;;;22.30;99.90;;;;;;5121507;27;20051;-67
2022/06/18 10:29:25;;;;;;;8.05;1.55;;;22.30;99.90;;;;;;5124380;27;20051;-67
2022/06/18 10:32:18;;;;;;;6.13;1.90;;;22.40;99.90;;;;;;5125404;27;20127;-68
2022/06/18 10:35:08;;;;;;;6.93;2.03;;;22.40;99.90;;;;;;5119221;27;20047;-68
2022/06/18 10:37:56;;;;;;;6.72;1.65;;;22.20;99.90;;;;;;5119762;27;20470;-69
2022/06/18 10:40:26;;;;;;;9.25;1.88;;;22.00;99.90;;;;;;5122378;27;20055;-68
2022/06/18 10:43:42;;;;;;;5.75;1.83;;;21.90;99.90;;;;;;5125024;27;20044;-68
2022/06/18 10:46:14;;;;;;;5.70;1.42;;;22.00;99.90;;;;;;5108744;27;20453;-68
2022/06/18 10:48:46;;;;;;;9.13;2.17;;;22.00;99.90;;;;;;5121486;27;20507;-67
2022/06/18 10:51:18;;;;;;;11.02;1.98;;;21.60;99.90;;;;;;5114984;27;20126;-67
2022/06/18 10:53:58;;;;;;;6.93;1.98;;;21.90;99.90;;;;;;5112801;28;20043;-70
2022/06/18 10:56:27;;;;;;;5.93;1.75;;;21.70;99.90;;;;;;5112890;28;20048;-67
2022/06/18 10:59:03;;;;;;;7.95;2.05;;;21.60;99.90;;;;;;5112811;27;20047;-68
2022/06/18 11:01:47;;;;;;;11.38;1.83;;;21.40;99.90;;;;;;5124005;27;20083;-67
2022/06/18 11:04:25;;;;;;;10.05;2.28;;;21.60;99.90;;;;;;5118810;27;20066;-68
2022/06/18 11:07:00;;;;;;;7.18;2.30;;;21.50;99.90;;;;;;5122872;27;20040;-69
2022/06/18 11:09:32;;;;;;;8.33;1.80;;;21.40;99.90;;;;;;5118611;27;20059;-67
2022/06/18 11:12:06;;;;;;;4.95;2.15;;;21.30;99.90;;;;;;5123924;27;20082;-68
2022/06/18 11:14:39;;;;;;;7.05;1.58;;;21.60;99.90;;;;;;5118601;27;20503;-67
2022/06/18 11:17:21;;;;;;;8.82;1.95;;;21.60;99.90;;;;;;5120332;27;20205;-69
2022/06/18 11:19:50;;;;;;;7.60;1.58;;;21.80;99.90;;;;;;5114499;27;20039;-68
2022/06/18 11:22:25;;;;;;;6.47;1.65;;;22.00;99.90;;;;;;5123793;27;20118;-70
2022/06/18 11:25:37;;;;;;;9.27;2.00;;;22.10;99.90;;;;;;5118152;27;20054;-67
2022/06/18 11:28:13;;;;;;;7.85;1.77;;;21.70;99.90;;;;;;5102505;27;20094;-69
2022/06/18 11:30:45;;;;;;;8.13;1.90;;;21.90;99.90;;;;;;5117276;27;20044;-67
2022/06/18 11:33:23;;;;;;;8.82;2.30;;;21.70;99.90;;;;;;5111937;28;20051;-67
2022/06/18 11:35:50;;;;;;;9.00;2.20;;;21.30;99.90;;;;;;5113022;28;20399;-69
2022/06/18 11:38:28;;;;;;;9.02;1.65;;;21.60;99.90;;;;;;5113545;28;20083;-68
2022/06/18 11:40:58;;;;;;;7.20;1.80;;;21.60;99.90;;;;;;5114052;28;20506;-68
2022/06/18 11:43:59;;;;;;;7.07;1.85;;;21.50;99.90;;;;;;5113782;28;20044;-67
2022/06/18 11:46:33;;;;;;;11.90;2.65;;;21.80;99.90;;;;;;5099762;28;20060;-68
2022/06/18 11:49:17;;;;;;;12.40;2.20;;;21.80;99.90;;;;;;5113776;28;20510;-67
2022/06/18 11:51:53;;;;;;;12.52;2.47;;;22.00;99.90;;;;;;5112562;28;20127;-67
2022/06/18 11:54:36;;;;;;;16.00;2.55;;;22.00;99.90;;;;;;5110420;28;20407;-68
2022/06/18 11:57:14;;;;;;;9.55;2.05;;;21.70;99.90;;;;;;5113416;28;20550;-67
2022/06/18 11:59:53;;;;;;;13.55;2.15;;;21.70;99.90;;;;;;5113691;28;20495;-68
2022/06/18 12:02:40;;;;;;;9.45;2.40;;;21.80;99.90;;;;;;5113581;28;20066;-68
2022/06/18 12:05:14;;;;;;;11.57;2.00;;;21.90;99.90;;;;;;5112262;28;20101;-67
2022/06/18 12:07:49;;;;;;;10.45;2.25;;;21.80;99.90;;;;;;5113560;28;20047;-67
2022/06/18 12:10:18;;;;;;;10.60;2.60;;;21.70;99.90;;;;;;5113444;28;20058;-67
2022/06/18 12:13:09;;;;;;;10.90;2.58;;;22.00;99.90;;;;;;5112802;28;20043;-66
2022/06/18 12:15:58;;;;;;;12.07;2.13;;;21.80;99.90;;;;;;5113373;28;20055;-67
2022/06/18 12:18:50;;;;;;;10.77;2.78;;;21.60;99.90;;;;;;5113399;28;20062;-66
2022/06/18 12:21:35;;;;;;;12.43;2.30;;;21.70;99.90;;;;;;5113405;28;20035;-67
2022/06/18 12:24:39;;;;;;;10.05;2.20;;;21.70;99.90;;;;;;5113241;28;20039;-68
2022/06/18 12:27:10;;;;;;;10.65;2.38;;;21.40;99.90;;;;;;5091290;28;20420;-67
2022/06/18 12:30:23;;;;;;;10.50;2.80;;;21.90;99.90;;;;;;5113102;28;20046;-67
2022/06/18 12:33:06;;;;;;;12.75;2.22;;;21.60;99.90;;;;;;5052853;28;20091;-74
2022/06/18 12:35:34;;;;;;;14.75;2.58;;;21.40;99.90;;;;;;5108958;28;20054;-69
2022/06/18 12:38:29;;;;;;;10.25;2.20;;;21.80;99.90;;;;;;5113095;28;20043;-67
2022/06/18 12:41:38;;;;;;;11.85;2.58;;;21.80;99.90;;;;;;5074877;28;20053;-67
2022/06/18 12:44:09;;;;;;;6.55;1.88;;;21.80;99.90;;;;;;5097873;28;20056;-66
2022/06/18 12:47:19;;;;;;;8.98;2.20;;;21.70;99.90;;;;;;5112854;28;20044;-68
2022/06/18 12:50:13;;;;;;;9.40;2.10;;;21.90;99.90;;;;;;5074638;28;20543;-67
2022/06/18 12:52:48;;;;;;;12.00;2.55;;;21.70;99.90;;;;;;5112663;28;20089;-66
2022/06/18 12:55:29;;;;;;;15.93;3.33;;;21.70;99.90;;;;;;5112651;28;20051;-68
2022/06/18 12:58:23;;;;;;;16.40;2.75;;;21.60;99.90;;;;;;5111312;28;20040;-67
2022/06/18 13:00:59;;;;;;;13.38;2.53;;;22.30;99.90;;;;;;5112668;28;20054;-67
2022/06/18 13:03:48;;;;;;;14.25;2.55;;;22.00;99.90;;;;;;5112594;28;20061;-67
2022/06/18 13:06:33;;;;;;;11.32;2.45;;;21.80;99.90;;;;;;5112120;28;20047;-67
2022/06/18 13:09:10;;;;;;;14.13;2.90;;;22.00;99.90;;;;;;5111482;28;20467;-68
2022/06/18 13:11:55;;;;;;;9.98;2.25;;;21.90;99.90;;;;;;5111093;28;20127;-67
2022/06/18 13:14:41;;;;;;;13.25;2.80;;;21.60;99.90;;;;;;5112450;28;20135;-68
2022/06/18 13:17:42;;;;;;;13.77;2.17;;;21.50;99.90;;;;;;5104368;28;20058;-68
2022/06/18 13:20:16;;;;;;;10.38;2.40;;;21.50;99.90;;;;;;5104288;28;20052;-69
2022/06/18 13:22:42;;;;;;;9.48;2.13;;;22.00;99.90;;;;;;5112350;28;20552;-68